createdAt,value
2018-05-03T00:00:34.229Z,18.70
2018-05-03T00:01:39.116Z,18.70
2018-05-03T00:02:44.234Z,18.70
2018-05-03T00:03:48.968Z,18.70
2018-05-03T00:04:53.951Z,18.70
2018-05-03T00:05:58.634Z,18.70
2018-05-03T00:07:03.488Z,18.70
2018-05-03T00:08:08.392Z,18.70
2018-05-03T00:09:13.133Z,18.70
2018-05-03T00:10:18.092Z,18.70
2018-05-03T00:11:22.940Z,18.70
2018-05-03T00:12:27.846Z,18.70
2018-05-03T00:13:32.693Z,18.70
2018-05-03T00:14:37.563Z,18.70
2018-05-03T00:15:42.459Z,18.70
2018-05-03T00:16:47.542Z,18.70
2018-05-03T00:17:52.556Z,18.70
2018-05-03T00:18:57.187Z,18.70
2018-05-03T00:20:02.041Z,18.70
2018-05-03T00:21:07.110Z,18.70
2018-05-03T00:22:11.909Z,18.70
2018-05-03T00:23:16.729Z,18.60
2018-05-03T00:24:21.799Z,18.70
2018-05-03T00:25:26.687Z,18.70
2018-05-03T00:26:31.691Z,18.60
2018-05-03T00:27:36.661Z,18.60
2018-05-03T00:28:41.526Z,18.60
2018-05-03T00:29:46.323Z,18.60
2018-05-03T00:30:51.080Z,18.60
2018-05-03T00:31:55.770Z,18.60
2018-05-03T00:33:00.830Z,18.60
2018-05-03T00:34:05.902Z,18.60
2018-05-03T00:35:10.794Z,18.70
2018-05-03T00:36:15.942Z,18.70
2018-05-03T00:37:20.978Z,18.70
2018-05-03T00:38:25.844Z,18.60
2018-05-03T00:39:30.706Z,18.70
2018-05-03T00:40:35.555Z,18.60
2018-05-03T00:41:40.414Z,18.60
2018-05-03T00:42:45.341Z,18.60
2018-05-03T00:43:50.150Z,18.70
2018-05-03T00:44:55.165Z,18.60
2018-05-03T00:46:00.133Z,18.60
2018-05-03T00:47:05.068Z,18.60
2018-05-03T00:48:09.755Z,18.60
2018-05-03T00:49:14.572Z,18.60
2018-05-03T00:50:19.539Z,18.60
2018-05-03T00:51:24.392Z,18.60
2018-05-03T00:52:29.182Z,18.60
2018-05-03T00:53:34.015Z,18.70
2018-05-03T00:54:38.694Z,18.60
2018-05-03T00:55:43.610Z,18.60
2018-05-03T00:56:48.597Z,18.70
2018-05-03T00:57:53.292Z,18.60
2018-05-03T00:58:58.128Z,18.60
2018-05-03T01:00:03.034Z,18.70
2018-05-03T01:01:07.825Z,18.60
2018-05-03T01:02:12.873Z,18.60
2018-05-03T01:03:17.803Z,18.60
2018-05-03T01:04:22.859Z,18.60
2018-05-03T01:05:27.916Z,18.60
2018-05-03T01:06:32.784Z,18.60
2018-05-03T01:07:37.594Z,18.60
2018-05-03T01:08:42.650Z,18.60
2018-05-03T01:09:47.525Z,18.60
2018-05-03T01:10:52.181Z,18.70
2018-05-03T01:11:57.458Z,18.70
2018-05-03T01:13:02.412Z,18.60
2018-05-03T01:14:07.363Z,18.60
2018-05-03T01:15:12.445Z,18.60
2018-05-03T01:16:17.504Z,18.60
2018-05-03T01:17:22.511Z,18.60
2018-05-03T01:18:27.489Z,18.60
2018-05-03T01:19:32.624Z,18.60
2018-05-03T01:20:37.256Z,18.60
2018-05-03T01:21:42.144Z,18.60
2018-05-03T01:22:47.090Z,18.60
2018-05-03T01:23:52.189Z,18.60
2018-05-03T01:24:57.039Z,18.60
2018-05-03T01:26:01.976Z,18.60
2018-05-03T01:27:06.843Z,18.60
2018-05-03T01:28:11.452Z,18.60
2018-05-03T01:29:16.089Z,18.60
2018-05-03T01:30:20.943Z,18.60
2018-05-03T01:31:25.991Z,18.60
2018-05-03T01:32:30.610Z,18.60
2018-05-03T01:33:35.396Z,18.60
2018-05-03T01:34:40.141Z,18.60
2018-05-03T01:35:45.093Z,18.60
2018-05-03T01:36:49.722Z,18.60
2018-05-03T01:37:54.615Z,18.60
2018-05-03T01:38:59.528Z,18.60
2018-05-03T01:40:04.325Z,18.60
2018-05-03T01:41:09.115Z,18.60
2018-05-03T01:42:14.092Z,18.60
2018-05-03T01:43:18.812Z,18.60
2018-05-03T01:44:23.930Z,18.60
2018-05-03T01:45:28.907Z,18.60
2018-05-03T01:46:33.558Z,18.60
2018-05-03T01:47:38.585Z,18.60
2018-05-03T01:48:43.229Z,18.60
2018-05-03T01:49:48.196Z,18.60
2018-05-03T01:50:53.001Z,18.60
2018-05-03T01:51:57.884Z,18.60
2018-05-03T01:53:02.876Z,18.60
2018-05-03T01:54:07.742Z,18.60
2018-05-03T01:55:12.605Z,18.60
2018-05-03T01:56:18.159Z,18.60
2018-05-03T01:57:23.113Z,18.60
2018-05-03T01:58:28.004Z,18.60
2018-05-03T01:59:32.793Z,18.60
2018-05-03T02:00:37.524Z,18.60
2018-05-03T02:01:42.325Z,18.60
2018-05-03T02:02:46.941Z,18.60
2018-05-03T02:03:51.599Z,18.60
2018-05-03T02:04:56.526Z,18.60
2018-05-03T02:06:01.223Z,18.60
2018-05-03T02:07:06.200Z,18.60
2018-05-03T02:08:11.223Z,18.60
2018-05-03T02:09:15.860Z,18.60
2018-05-03T02:10:20.712Z,18.60
2018-05-03T02:11:25.429Z,18.60
2018-05-03T02:12:30.334Z,18.60
2018-05-03T02:13:34.974Z,18.60
2018-05-03T02:14:40.036Z,18.60
2018-05-03T02:15:44.892Z,18.60
2018-05-03T02:16:49.701Z,18.60
2018-05-03T02:17:54.480Z,18.60
2018-05-03T02:18:59.426Z,18.60
2018-05-03T02:20:04.204Z,18.60
2018-05-03T02:21:09.243Z,18.60
2018-05-03T02:22:14.214Z,18.60
2018-05-03T02:23:19.199Z,18.60
2018-05-03T02:24:23.821Z,18.60
2018-05-03T02:25:28.679Z,18.60
2018-05-03T02:26:33.732Z,18.60
2018-05-03T02:27:38.432Z,18.60
2018-05-03T02:28:43.315Z,18.60
2018-05-03T02:29:48.097Z,18.60
2018-05-03T02:30:52.917Z,18.60
2018-05-03T02:31:57.823Z,18.60
2018-05-03T02:33:02.692Z,18.60
2018-05-03T02:34:07.397Z,18.60
2018-05-03T02:35:12.268Z,18.60
2018-05-03T02:36:16.966Z,18.60
2018-05-03T02:37:22.056Z,18.60
2018-05-03T02:38:26.914Z,18.60
2018-05-03T02:39:31.831Z,18.60
2018-05-03T02:40:36.730Z,18.60
2018-05-03T02:41:41.688Z,18.60
2018-05-03T02:42:46.560Z,18.60
2018-05-03T02:43:51.637Z,18.60
2018-05-03T02:44:56.569Z,18.60
2018-05-03T02:46:01.632Z,18.60
2018-05-03T02:47:06.399Z,18.60
2018-05-03T02:48:11.230Z,18.60
2018-05-03T02:49:16.107Z,18.60
2018-05-03T02:50:21.103Z,18.60
2018-05-03T02:51:25.966Z,18.60
2018-05-03T02:52:30.990Z,18.60
2018-05-03T02:53:35.707Z,18.60
2018-05-03T02:54:40.518Z,18.60
2018-05-03T02:55:45.184Z,18.60
2018-05-03T02:56:50.217Z,18.60
2018-05-03T02:57:54.942Z,18.60
2018-05-03T02:58:59.604Z,18.60
2018-05-03T03:00:04.434Z,18.60
2018-05-03T03:01:09.125Z,18.60
2018-05-03T03:02:13.866Z,18.60
2018-05-03T03:03:18.676Z,18.60
2018-05-03T03:04:23.453Z,18.60
2018-05-03T03:05:28.303Z,18.60
2018-05-03T03:06:32.896Z,18.60
2018-05-03T03:07:37.502Z,18.60
2018-05-03T03:08:42.529Z,18.60
2018-05-03T03:09:47.379Z,18.60
2018-05-03T03:10:52.037Z,18.60
2018-05-03T03:11:56.839Z,18.60
2018-05-03T03:13:01.687Z,18.60
2018-05-03T03:14:06.487Z,18.60
2018-05-03T03:15:11.141Z,18.60
2018-05-03T03:16:16.014Z,18.60
2018-05-03T03:17:20.799Z,18.60
2018-05-03T03:18:25.825Z,18.60
2018-05-03T03:19:30.714Z,18.60
2018-05-03T03:20:35.835Z,18.60
2018-05-03T03:21:40.744Z,18.60
2018-05-03T03:22:45.726Z,18.60
2018-05-03T03:23:50.495Z,18.60
2018-05-03T03:24:55.461Z,18.60
2018-05-03T03:26:00.212Z,18.60
2018-05-03T03:27:05.111Z,18.60
2018-05-03T03:28:09.914Z,18.60
2018-05-03T03:29:14.650Z,18.60
2018-05-03T03:30:19.666Z,18.60
2018-05-03T03:31:24.518Z,18.60
2018-05-03T03:32:29.264Z,18.60
2018-05-03T03:33:34.093Z,18.60
2018-05-03T03:34:38.921Z,18.60
2018-05-03T03:35:43.725Z,18.60
2018-05-03T03:36:48.427Z,18.60
2018-05-03T03:37:53.320Z,18.60
2018-05-03T03:38:58.172Z,18.60
2018-05-03T03:40:03.022Z,18.60
2018-05-03T03:41:07.900Z,18.60
2018-05-03T03:42:12.728Z,18.60
2018-05-03T03:43:17.714Z,18.60
2018-05-03T03:44:22.623Z,18.60
2018-05-03T03:45:27.237Z,18.60
2018-05-03T03:46:32.041Z,18.60
2018-05-03T03:47:36.814Z,18.60
2018-05-03T03:48:41.669Z,18.60
2018-05-03T03:49:46.618Z,18.60
2018-05-03T03:50:51.513Z,18.60
2018-05-03T03:51:56.290Z,18.60
2018-05-03T03:53:00.991Z,18.60
2018-05-03T03:54:05.917Z,18.60
2018-05-03T03:55:10.756Z,18.60
2018-05-03T03:56:15.720Z,18.60
2018-05-03T03:57:20.500Z,18.60
2018-05-03T03:58:25.513Z,18.60
2018-05-03T03:59:30.296Z,18.60
2018-05-03T04:00:35.228Z,18.60
2018-05-03T04:01:40.274Z,18.60
2018-05-03T04:02:45.090Z,18.60
2018-05-03T04:03:49.957Z,18.60
2018-05-03T04:04:54.746Z,18.60
2018-05-03T04:05:59.760Z,18.60
2018-05-03T04:07:04.626Z,18.60
2018-05-03T04:08:09.685Z,18.60
2018-05-03T04:09:14.541Z,18.60
2018-05-03T04:10:19.544Z,18.60
2018-05-03T04:11:24.605Z,18.60
2018-05-03T04:12:29.475Z,18.60
2018-05-03T04:13:34.536Z,18.60
2018-05-03T04:14:39.474Z,18.60
2018-05-03T04:15:44.343Z,18.60
2018-05-03T04:16:49.192Z,18.60
2018-05-03T04:17:54.080Z,18.60
2018-05-03T04:18:59.234Z,18.60
2018-05-03T04:20:04.263Z,18.60
2018-05-03T04:21:09.273Z,18.60
2018-05-03T04:22:14.292Z,18.60
2018-05-03T04:23:19.340Z,18.60
2018-05-03T04:24:23.993Z,18.60
2018-05-03T04:25:28.979Z,18.60
2018-05-03T04:26:33.983Z,18.60
2018-05-03T04:27:38.687Z,18.60
2018-05-03T04:28:43.559Z,18.60
2018-05-03T04:29:48.641Z,18.60
2018-05-03T04:30:53.588Z,18.60
2018-05-03T04:31:58.584Z,18.60
2018-05-03T04:33:03.561Z,18.60
2018-05-03T04:34:08.214Z,18.60
2018-05-03T04:35:12.841Z,18.60
2018-05-03T04:36:17.662Z,18.60
2018-05-03T04:37:22.380Z,18.60
2018-05-03T04:38:27.119Z,18.60
2018-05-03T04:39:31.980Z,18.60
2018-05-03T04:40:36.992Z,18.60
2018-05-03T04:41:41.874Z,18.60
2018-05-03T04:42:46.682Z,18.60
2018-05-03T04:43:52.137Z,18.60
2018-05-03T04:44:57.347Z,18.60
2018-05-03T04:46:02.495Z,18.60
2018-05-03T04:47:07.159Z,18.50
2018-05-03T04:48:11.874Z,18.50
2018-05-03T04:49:16.458Z,18.50
2018-05-03T04:50:21.267Z,18.50
2018-05-03T04:51:26.016Z,18.60
2018-05-03T04:52:30.918Z,18.50
2018-05-03T04:53:35.812Z,18.60
2018-05-03T04:54:40.632Z,18.60
2018-05-03T04:55:45.482Z,18.60
2018-05-03T04:56:50.306Z,18.60
2018-05-03T04:57:55.307Z,18.60
2018-05-03T04:59:00.229Z,18.60
2018-05-03T05:00:05.064Z,18.60
2018-05-03T05:01:10.084Z,18.60
2018-05-03T05:02:14.942Z,18.60
2018-05-03T05:03:19.978Z,18.60
2018-05-03T05:04:25.005Z,18.60
2018-05-03T05:05:29.956Z,18.60
2018-05-03T05:06:34.848Z,18.60
2018-05-03T05:07:39.990Z,18.60
2018-05-03T05:08:44.981Z,18.60
2018-05-03T05:09:51.351Z,18.60
2018-05-03T05:10:57.277Z,18.60
2018-05-03T05:12:02.399Z,18.60
2018-05-03T05:13:07.558Z,18.60
2018-05-03T05:14:12.368Z,18.60
2018-05-03T05:15:17.140Z,18.60
2018-05-03T05:16:22.190Z,18.60
2018-05-03T05:17:27.235Z,18.60
2018-05-03T05:18:32.210Z,18.60
2018-05-03T05:19:36.919Z,18.60
2018-05-03T05:20:41.837Z,18.60
2018-05-03T05:21:46.794Z,18.60
2018-05-03T05:22:51.828Z,18.60
2018-05-03T05:23:56.636Z,18.60
2018-05-03T05:25:01.440Z,18.60
2018-05-03T05:26:06.918Z,18.60
2018-05-03T05:27:12.194Z,18.60
2018-05-03T05:28:17.243Z,18.60
2018-05-03T05:29:22.272Z,18.60
2018-05-03T05:30:27.237Z,18.60
2018-05-03T05:31:32.350Z,18.60
2018-05-03T05:32:37.104Z,18.60
2018-05-03T05:33:41.844Z,18.60
2018-05-03T05:34:47.308Z,18.60
2018-05-03T05:35:53.394Z,18.60
2018-05-03T05:37:00.568Z,18.60
2018-05-03T05:38:06.283Z,18.60
2018-05-03T05:39:11.342Z,18.60
2018-05-03T05:40:16.161Z,18.60
2018-05-03T05:41:21.112Z,18.60
2018-05-03T05:42:26.506Z,18.60
2018-05-03T05:43:31.377Z,18.60
2018-05-03T05:44:36.327Z,18.60
2018-05-03T05:45:41.211Z,18.60
2018-05-03T05:46:46.030Z,18.60
2018-05-03T05:47:50.938Z,18.60
2018-05-03T05:48:55.732Z,18.60
2018-05-03T05:50:00.820Z,18.60
2018-05-03T05:51:05.684Z,18.60
2018-05-03T05:52:10.286Z,18.60
2018-05-03T05:53:15.252Z,18.60
2018-05-03T05:54:20.144Z,18.60
2018-05-03T05:55:25.009Z,18.60
2018-05-03T05:56:29.733Z,18.60
2018-05-03T05:57:34.630Z,18.60
2018-05-03T05:58:39.650Z,18.60
2018-05-03T05:59:44.423Z,18.60
2018-05-03T06:00:49.220Z,18.60
2018-05-03T06:01:54.194Z,18.60
2018-05-03T06:02:58.945Z,18.60
2018-05-03T06:04:04.003Z,18.60
2018-05-03T06:05:08.753Z,18.60
2018-05-03T06:06:13.478Z,18.60
2018-05-03T06:07:18.565Z,18.60
2018-05-03T06:08:23.603Z,18.60
2018-05-03T06:09:28.676Z,18.60
2018-05-03T06:10:33.857Z,18.60
2018-05-03T06:11:38.769Z,18.60
2018-05-03T06:12:43.495Z,18.60
2018-05-03T06:13:48.184Z,18.60
2018-05-03T06:14:53.128Z,18.60
2018-05-03T06:15:58.110Z,18.60
2018-05-03T06:17:02.954Z,18.60
2018-05-03T06:18:07.934Z,18.60
2018-05-03T06:19:12.634Z,18.70
2018-05-03T06:20:17.660Z,18.70
2018-05-03T06:21:22.504Z,18.70
2018-05-03T06:22:27.649Z,18.70
2018-05-03T06:23:32.325Z,18.70
2018-05-03T06:24:37.068Z,18.70
2018-05-03T06:25:41.759Z,18.70
2018-05-03T06:26:46.707Z,18.70
2018-05-03T06:27:51.688Z,18.70
2018-05-03T06:28:56.671Z,18.70
2018-05-03T06:30:01.374Z,18.70
2018-05-03T06:31:06.238Z,18.70
2018-05-03T06:32:11.152Z,18.70
2018-05-03T06:33:15.956Z,18.70
2018-05-03T06:34:20.945Z,18.70
2018-05-03T06:35:26.101Z,18.70
2018-05-03T06:36:30.925Z,18.70
2018-05-03T06:37:36.252Z,18.70
2018-05-03T06:38:41.286Z,18.70
2018-05-03T06:39:46.218Z,18.70
2018-05-03T06:40:51.859Z,18.70
2018-05-03T06:41:56.500Z,18.70
2018-05-03T06:43:01.159Z,18.70
2018-05-03T06:44:05.790Z,18.70
2018-05-03T06:45:10.805Z,18.70
2018-05-03T06:46:15.764Z,18.70
2018-05-03T06:47:20.718Z,18.70
2018-05-03T06:48:25.341Z,18.70
2018-05-03T06:49:30.399Z,18.60
2018-05-03T06:50:35.310Z,18.60
2018-05-03T06:51:40.323Z,18.60
2018-05-03T06:52:45.138Z,18.60
2018-05-03T06:53:49.790Z,18.60
2018-05-03T06:54:54.757Z,18.60
2018-05-03T06:55:59.462Z,18.60
2018-05-03T06:57:04.368Z,18.60
2018-05-03T06:58:09.145Z,18.60
2018-05-03T06:59:13.994Z,18.60
2018-05-03T07:00:18.566Z,18.60
2018-05-03T07:01:23.579Z,18.60
2018-05-03T07:02:28.279Z,18.60
2018-05-03T07:03:33.304Z,18.60
2018-05-03T07:04:38.051Z,18.60
2018-05-03T07:05:42.877Z,18.60
2018-05-03T07:06:47.852Z,18.60
2018-05-03T07:07:52.599Z,18.60
2018-05-03T07:08:57.488Z,18.60
2018-05-03T07:10:02.402Z,18.60
2018-05-03T07:11:07.071Z,18.60
2018-05-03T07:12:11.774Z,18.60
2018-05-03T07:13:16.755Z,18.60
2018-05-03T07:14:21.660Z,18.60
2018-05-03T07:15:26.700Z,18.60
2018-05-03T07:16:31.695Z,18.60
2018-05-03T07:17:36.567Z,18.60
2018-05-03T07:18:41.390Z,18.60
2018-05-03T07:19:46.067Z,18.60
2018-05-03T07:20:51.008Z,18.60
2018-05-03T07:21:55.808Z,18.60
2018-05-03T07:23:00.853Z,18.60
2018-05-03T07:24:05.495Z,18.60
2018-05-03T07:25:10.257Z,18.60
2018-05-03T07:26:14.914Z,18.60
2018-05-03T07:27:19.832Z,18.60
2018-05-03T07:28:24.589Z,18.60
2018-05-03T07:29:29.612Z,18.60
2018-05-03T07:30:34.623Z,18.60
2018-05-03T07:31:39.325Z,18.60
2018-05-03T07:32:44.169Z,18.60
2018-05-03T07:33:49.257Z,18.60
2018-05-03T07:34:54.095Z,18.60
2018-05-03T07:35:58.978Z,18.60
2018-05-03T07:37:03.967Z,18.60
2018-05-03T07:38:09.030Z,18.60
2018-05-03T07:39:14.037Z,18.60
2018-05-03T07:40:19.036Z,18.60
2018-05-03T07:41:23.968Z,18.60
2018-05-03T07:42:28.672Z,18.60
2018-05-03T07:43:33.568Z,18.60
2018-05-03T07:44:38.484Z,18.60
2018-05-03T07:45:43.158Z,18.60
2018-05-03T07:46:47.909Z,18.60
2018-05-03T07:47:52.737Z,18.60
2018-05-03T07:48:57.858Z,18.60
2018-05-03T07:50:03.585Z,18.60
2018-05-03T07:51:08.609Z,18.60
2018-05-03T07:52:13.541Z,18.60
2018-05-03T07:53:18.333Z,18.60
2018-05-03T07:54:23.106Z,18.60
2018-05-03T07:55:27.958Z,18.60
2018-05-03T07:56:33.032Z,18.70
2018-05-03T07:57:37.836Z,18.70
2018-05-03T07:58:42.596Z,18.70
2018-05-03T07:59:47.390Z,18.70
2018-05-03T08:00:52.293Z,18.70
2018-05-03T08:01:57.042Z,18.70
2018-05-03T08:03:02.018Z,18.70
2018-05-03T08:04:06.868Z,18.70
2018-05-03T08:05:11.630Z,18.70
2018-05-03T08:06:16.554Z,18.70
2018-05-03T08:07:21.503Z,18.70
2018-05-03T08:08:26.198Z,18.70
2018-05-03T08:09:30.820Z,18.70
2018-05-03T08:10:35.684Z,18.70
2018-05-03T08:11:40.576Z,18.70
2018-05-03T08:12:45.566Z,18.70
2018-05-03T08:13:50.420Z,18.70
2018-05-03T08:14:55.035Z,18.70
2018-05-03T08:15:59.973Z,18.70
2018-05-03T08:17:04.957Z,18.70
2018-05-03T08:18:09.675Z,18.70
2018-05-03T08:19:14.336Z,18.70
2018-05-03T08:20:19.242Z,18.70
2018-05-03T08:21:24.277Z,18.70
2018-05-03T08:22:29.255Z,18.70
2018-05-03T08:23:34.139Z,18.70
2018-05-03T08:24:38.984Z,18.70
2018-05-03T08:25:43.825Z,18.70
2018-05-03T08:26:48.757Z,18.80
2018-05-03T08:27:53.697Z,18.70
2018-05-03T08:28:58.429Z,18.80
2018-05-03T08:30:03.145Z,18.80
2018-05-03T08:31:08.138Z,18.80
2018-05-03T08:32:12.812Z,18.80
2018-05-03T08:33:17.616Z,18.80
2018-05-03T08:34:22.427Z,18.80
2018-05-03T08:35:27.355Z,18.80
2018-05-03T08:36:32.355Z,18.80
2018-05-03T08:37:37.293Z,18.80
2018-05-03T08:38:42.268Z,18.80
2018-05-03T08:39:46.959Z,18.80
2018-05-03T08:40:51.650Z,18.80
2018-05-03T08:41:56.616Z,18.80
2018-05-03T08:43:02.201Z,18.80
2018-05-03T08:44:06.997Z,18.80
2018-05-03T08:45:11.584Z,18.80
2018-05-03T08:46:16.496Z,18.80
2018-05-03T08:47:21.331Z,18.80
2018-05-03T08:48:26.090Z,18.80
2018-05-03T08:49:30.915Z,18.80
2018-05-03T08:50:35.851Z,18.80
2018-05-03T08:51:40.614Z,18.80
2018-05-03T08:52:45.643Z,18.80
2018-05-03T08:53:50.284Z,18.80
2018-05-03T08:54:55.058Z,18.80
2018-05-03T08:56:00.013Z,18.80
2018-05-03T08:57:04.664Z,18.80
2018-05-03T08:58:09.447Z,18.80
2018-05-03T08:59:14.285Z,18.80
2018-05-03T09:00:19.046Z,18.80
2018-05-03T09:01:24.156Z,18.80
2018-05-03T09:02:28.982Z,18.80
2018-05-03T09:03:33.806Z,18.80
2018-05-03T09:04:38.660Z,18.80
2018-05-03T09:05:43.489Z,18.80
2018-05-03T09:06:48.313Z,18.80
2018-05-03T09:07:53.222Z,18.80
2018-05-03T09:08:58.020Z,18.80
2018-05-03T09:10:03.050Z,18.80
2018-05-03T09:11:08.020Z,18.80
2018-05-03T09:12:13.066Z,18.80
2018-05-03T09:13:17.880Z,18.80
2018-05-03T09:14:22.711Z,18.80
2018-05-03T09:15:27.756Z,18.80
2018-05-03T09:16:32.542Z,18.80
2018-05-03T09:17:37.581Z,18.80
2018-05-03T09:18:42.446Z,18.90
2018-05-03T09:19:47.502Z,18.80
2018-05-03T09:20:52.329Z,18.80
2018-05-03T09:21:57.138Z,18.80
2018-05-03T09:23:01.899Z,18.80
2018-05-03T09:24:06.750Z,18.80
2018-05-03T09:25:11.573Z,18.80
2018-05-03T09:26:16.189Z,18.90
2018-05-03T09:27:20.884Z,18.90
2018-05-03T09:28:25.609Z,18.90
2018-05-03T09:29:30.496Z,18.90
2018-05-03T09:30:35.315Z,18.90
2018-05-03T09:31:40.150Z,18.90
2018-05-03T09:32:45.092Z,18.90
2018-05-03T09:33:50.099Z,18.90
2018-05-03T09:34:55.154Z,18.90
2018-05-03T09:35:59.970Z,18.90
2018-05-03T09:37:04.804Z,18.90
2018-05-03T09:38:09.496Z,18.90
2018-05-03T09:39:14.611Z,18.90
2018-05-03T09:40:19.534Z,18.90
2018-05-03T09:41:24.246Z,18.90
2018-05-03T09:42:29.204Z,18.90
2018-05-03T09:43:33.993Z,18.90
2018-05-03T09:44:38.896Z,18.90
2018-05-03T09:45:43.535Z,18.90
2018-05-03T09:46:48.241Z,18.90
2018-05-03T09:47:53.244Z,18.90
2018-05-03T09:48:58.179Z,18.90
2018-05-03T09:50:06.131Z,18.90
2018-05-03T09:51:10.895Z,18.90
2018-05-03T09:52:15.741Z,18.90
2018-05-03T09:53:20.540Z,18.90
2018-05-03T09:54:25.723Z,18.90
2018-05-03T09:55:30.377Z,18.90
2018-05-03T09:56:35.411Z,18.90
2018-05-03T09:57:40.143Z,18.90
2018-05-03T09:58:45.027Z,18.90
2018-05-03T09:59:50.181Z,18.90
2018-05-03T10:00:55.021Z,18.90
2018-05-03T10:01:59.801Z,18.90
2018-05-03T10:03:04.693Z,18.90
2018-05-03T10:04:09.512Z,18.90
2018-05-03T10:05:14.522Z,18.90
2018-05-03T10:06:19.596Z,18.90
2018-05-03T10:07:24.500Z,18.90
2018-05-03T10:08:29.354Z,18.90
2018-05-03T10:09:34.258Z,18.90
2018-05-03T10:10:39.090Z,18.90
2018-05-03T10:11:44.017Z,18.90
2018-05-03T10:12:49.113Z,18.90
2018-05-03T10:13:53.856Z,18.90
2018-05-03T10:14:58.906Z,18.90
2018-05-03T10:16:03.749Z,18.90
2018-05-03T10:17:08.615Z,18.90
2018-05-03T10:18:13.484Z,18.90
2018-05-03T10:19:18.448Z,18.90
2018-05-03T10:20:23.346Z,18.90
2018-05-03T10:21:28.297Z,18.90
2018-05-03T10:22:33.591Z,18.90
2018-05-03T10:23:38.387Z,18.90
2018-05-03T10:24:43.356Z,18.90
2018-05-03T10:25:48.085Z,18.90
2018-05-03T10:26:53.036Z,18.90
2018-05-03T10:27:57.885Z,18.90
2018-05-03T10:29:02.768Z,18.90
2018-05-03T10:30:07.821Z,18.90
2018-05-03T10:31:12.672Z,18.90
2018-05-03T10:32:17.511Z,18.90
2018-05-03T10:33:22.519Z,18.90
2018-05-03T10:34:27.601Z,18.90
2018-05-03T10:35:32.586Z,18.90
2018-05-03T10:36:37.526Z,18.90
2018-05-03T10:37:42.249Z,18.90
2018-05-03T10:38:47.289Z,18.90
2018-05-03T10:39:52.281Z,18.90
2018-05-03T10:40:57.249Z,18.90
2018-05-03T10:42:02.329Z,18.90
2018-05-03T10:43:07.200Z,18.90
2018-05-03T10:44:12.150Z,18.90
2018-05-03T10:45:17.261Z,18.90
2018-05-03T10:46:22.367Z,18.90
2018-05-03T10:47:27.330Z,18.90
2018-05-03T10:48:32.441Z,18.90
2018-05-03T10:49:37.451Z,18.90
2018-05-03T10:50:42.383Z,18.90
2018-05-03T10:51:47.371Z,18.90
2018-05-03T10:52:52.487Z,18.90
2018-05-03T10:53:57.343Z,18.90
2018-05-03T10:55:02.397Z,18.90
2018-05-03T10:56:07.445Z,18.90
2018-05-03T10:57:12.608Z,18.90
2018-05-03T10:58:17.554Z,18.90
2018-05-03T10:59:22.592Z,18.90
2018-05-03T11:00:27.457Z,18.90
2018-05-03T11:01:32.410Z,18.90
2018-05-03T11:02:37.108Z,18.90
2018-05-03T11:03:42.073Z,18.90
2018-05-03T11:04:47.231Z,18.90
2018-05-03T11:05:52.464Z,18.90
2018-05-03T11:06:57.559Z,18.90
2018-05-03T11:08:02.198Z,18.90
2018-05-03T11:09:07.040Z,18.90
2018-05-03T11:10:12.012Z,18.90
2018-05-03T11:11:16.991Z,18.90
2018-05-03T11:12:21.986Z,18.90
2018-05-03T11:13:26.990Z,18.90
2018-05-03T11:14:31.872Z,18.90
2018-05-03T11:15:36.738Z,18.90
2018-05-03T11:16:41.737Z,18.90
2018-05-03T11:17:46.797Z,18.90
2018-05-03T11:18:51.750Z,18.90
2018-05-03T11:19:56.701Z,18.90
2018-05-03T11:21:02.917Z,18.90
2018-05-03T11:22:07.846Z,18.90
2018-05-03T11:23:12.649Z,18.90
2018-05-03T11:24:17.747Z,18.90
2018-05-03T11:25:22.945Z,18.90
2018-05-03T11:26:27.624Z,18.90
2018-05-03T11:27:32.718Z,18.90
2018-05-03T11:28:37.912Z,18.90
2018-05-03T11:29:42.870Z,18.90
2018-05-03T11:30:47.988Z,18.90
2018-05-03T11:31:52.891Z,18.90
2018-05-03T11:32:57.950Z,18.90
2018-05-03T11:34:02.708Z,18.90
2018-05-03T11:35:07.558Z,18.90
2018-05-03T11:36:12.812Z,18.90
2018-05-03T11:37:17.974Z,18.90
2018-05-03T11:38:23.021Z,18.90
2018-05-03T11:39:27.781Z,18.90
2018-05-03T11:40:32.838Z,18.90
2018-05-03T11:41:41.084Z,18.90
2018-05-03T11:42:45.996Z,18.90
2018-05-03T11:43:50.609Z,18.90
2018-05-03T11:44:55.291Z,18.90
2018-05-03T11:46:00.102Z,18.90
2018-05-03T11:47:04.860Z,18.90
2018-05-03T11:48:09.801Z,18.90
2018-05-03T11:49:14.693Z,18.90
2018-05-03T11:50:19.528Z,18.90
2018-05-03T11:51:24.411Z,18.90
2018-05-03T11:52:29.235Z,19.00
2018-05-03T11:53:34.103Z,18.90
2018-05-03T11:54:39.259Z,19.00
2018-05-03T11:55:44.372Z,19.00
2018-05-03T11:56:49.001Z,19.00
2018-05-03T11:57:54.006Z,19.00
2018-05-03T11:58:58.811Z,19.00
2018-05-03T12:00:03.655Z,19.00
2018-05-03T12:01:08.544Z,19.00
2018-05-03T12:02:13.439Z,19.00
2018-05-03T12:03:18.385Z,19.00
2018-05-03T12:04:23.430Z,19.00
2018-05-03T12:05:28.114Z,19.00
2018-05-03T12:06:33.024Z,19.00
2018-05-03T12:07:37.903Z,19.00
2018-05-03T12:08:42.689Z,19.00
2018-05-03T12:09:47.690Z,19.00
2018-05-03T12:10:52.811Z,19.00
2018-05-03T12:11:57.896Z,19.00
2018-05-03T12:13:02.818Z,19.00
2018-05-03T12:14:07.637Z,19.00
2018-05-03T12:15:12.580Z,19.00
2018-05-03T12:16:17.380Z,19.00
2018-05-03T12:17:22.180Z,19.00
2018-05-03T12:18:26.884Z,19.00
2018-05-03T12:19:31.909Z,19.00
2018-05-03T12:20:36.648Z,19.00
2018-05-03T12:21:41.694Z,19.00
2018-05-03T12:22:46.542Z,19.10
2018-05-03T12:23:51.401Z,19.10
2018-05-03T12:24:56.349Z,19.10
2018-05-03T12:26:01.193Z,19.10
2018-05-03T12:27:06.054Z,19.10
2018-05-03T12:28:11.213Z,19.20
2018-05-03T12:29:16.204Z,19.20
2018-05-03T12:30:21.333Z,19.20
2018-05-03T12:31:25.932Z,19.10
2018-05-03T12:32:30.750Z,19.10
2018-05-03T12:33:35.507Z,19.20
2018-05-03T12:34:41.203Z,19.20
2018-05-03T12:35:46.149Z,19.20
2018-05-03T12:36:51.289Z,19.20
2018-05-03T12:37:56.637Z,19.20
2018-05-03T12:39:01.647Z,19.20
2018-05-03T12:40:06.598Z,19.20
2018-05-03T12:41:11.491Z,19.20
2018-05-03T12:42:16.527Z,19.20
2018-05-03T12:43:21.551Z,19.20
2018-05-03T12:44:26.708Z,19.30
2018-05-03T12:45:31.614Z,19.30
2018-05-03T12:46:36.493Z,19.20
2018-05-03T12:47:41.211Z,19.30
2018-05-03T12:48:46.142Z,19.30
2018-05-03T12:49:50.906Z,19.30
2018-05-03T12:50:55.693Z,19.30
2018-05-03T12:52:00.688Z,19.40
2018-05-03T12:53:05.681Z,19.40
2018-05-03T12:54:10.569Z,19.40
2018-05-03T12:55:15.527Z,19.40
2018-05-03T12:56:20.498Z,19.40
2018-05-03T12:57:25.581Z,19.40
2018-05-03T12:58:30.304Z,19.40
2018-05-03T12:59:35.485Z,19.30
2018-05-03T13:00:40.213Z,19.30
2018-05-03T13:01:45.058Z,19.30
2018-05-03T13:02:50.012Z,19.30
2018-05-03T13:03:54.776Z,19.30
2018-05-03T13:04:59.579Z,19.30
2018-05-03T13:06:04.657Z,19.30
2018-05-03T13:07:09.702Z,19.20
2018-05-03T13:08:14.360Z,19.20
2018-05-03T13:09:19.437Z,19.30
2018-05-03T13:10:24.364Z,19.30
2018-05-03T13:11:29.467Z,19.30
2018-05-03T13:12:34.281Z,19.30
2018-05-03T13:13:39.006Z,19.30
2018-05-03T13:14:44.034Z,19.30
2018-05-03T13:15:48.832Z,19.30
2018-05-03T13:16:53.741Z,19.30
2018-05-03T13:17:58.581Z,19.30
2018-05-03T13:19:03.668Z,19.30
2018-05-03T13:20:08.357Z,19.30
2018-05-03T13:21:13.000Z,19.30
2018-05-03T13:22:17.840Z,19.30
2018-05-03T13:23:22.446Z,19.30
2018-05-03T13:24:27.410Z,19.30
2018-05-03T13:25:32.368Z,19.30
2018-05-03T13:26:37.398Z,19.30
2018-05-03T13:27:41.975Z,19.40
2018-05-03T13:28:46.871Z,19.40
2018-05-03T13:29:51.849Z,19.40
2018-05-03T13:30:56.727Z,19.30
2018-05-03T13:32:01.653Z,19.40
2018-05-03T13:33:06.704Z,19.40
2018-05-03T13:34:11.634Z,19.30
2018-05-03T13:35:16.303Z,19.30
2018-05-03T13:36:21.234Z,19.40
2018-05-03T13:37:26.131Z,19.40
2018-05-03T13:38:31.152Z,19.40
2018-05-03T13:39:36.042Z,19.40
2018-05-03T13:40:40.745Z,19.40
2018-05-03T13:41:45.413Z,19.40
2018-05-03T13:42:50.311Z,19.40
2018-05-03T13:43:55.204Z,19.50
2018-05-03T13:45:00.296Z,19.40
2018-05-03T13:46:05.080Z,19.40
2018-05-03T13:47:10.033Z,19.50
2018-05-03T13:48:14.930Z,19.40
2018-05-03T13:49:19.709Z,19.50
2018-05-03T13:50:24.402Z,19.50
2018-05-03T13:51:29.116Z,19.50
2018-05-03T13:52:33.949Z,19.50
2018-05-03T13:53:38.712Z,19.50
2018-05-03T13:54:43.502Z,19.50
2018-05-03T13:55:48.469Z,19.50